sensor_id;sensor_type;location;lat;lon;timestamp;P1;durP1;ratioP1;P2;durP2;ratioP2
4049;SDS011;2039;50.894;6.888;2023-02-15T00:01:29;97.05;;;28.25;;
4049;SDS011;2039;50.894;6.888;2023-02-15T00:03:55;103.60;;;29.13;;
4049;SDS011;2039;50.894;6.888;2023-02-15T00:06:21;103.90;;;32.22;;
4049;SDS011;2039;50.894;6.888;2023-02-15T00:08:47;99.03;;;28.67;;
4049;SDS011;2039;50.894;6.888;2023-02-15T00:11:14;105.07;;;28.07;;
4049;SDS011;2039;50.894;6.888;2023-02-15T00:13:41;99.43;;;27.63;;
4049;SDS011;2039;50.894;6.888;2023-02-15T00:16:11;99.55;;;26.88;;
4049;SDS011;2039;50.894;6.888;2023-02-15T00:18:44;94.78;;;26.73;;
4049;SDS011;2039;50.894;6.888;2023-02-15T00:21:12;104.07;;;32.75;;
4049;SDS011;2039;50.894;6.888;2023-02-15T00:23:38;100.97;;;29.23;;
4049;SDS011;2039;50.894;6.888;2023-02-15T00:26:08;99.17;;;31.07;;
4049;SDS011;2039;50.894;6.888;2023-02-15T00:28:35;100.45;;;29.85;;
4049;SDS011;2039;50.894;6.888;2023-02-15T00:31:02;106.53;;;31.50;;
4049;SDS011;2039;50.894;6.888;2023-02-15T00:33:32;103.40;;;28.90;;
4049;SDS011;2039;50.894;6.888;2023-02-15T00:35:59;103.70;;;29.05;;
4049;SDS011;2039;50.894;6.888;2023-02-15T00:38:26;99.80;;;27.45;;
4049;SDS011;2039;50.894;6.888;2023-02-15T00:40:53;100.15;;;29.45;;
4049;SDS011;2039;50.894;6.888;2023-02-15T00:43:20;99.70;;;28.23;;
4049;SDS011;2039;50.894;6.888;2023-02-15T00:45:48;102.72;;;31.52;;
4049;SDS011;2039;50.894;6.888;2023-02-15T00:48:14;103.93;;;30.50;;
4049;SDS011;2039;50.894;6.888;2023-02-15T00:50:40;103.60;;;28.20;;
4049;SDS011;2039;50.894;6.888;2023-02-15T00:53:06;111.17;;;31.80;;
4049;SDS011;2039;50.894;6.888;2023-02-15T00:55:32;102.27;;;30.37;;
4049;SDS011;2039;50.894;6.888;2023-02-15T00:57:58;102.30;;;31.42;;
4049;SDS011;2039;50.894;6.888;2023-02-15T01:00:23;105.00;;;31.23;;
4049;SDS011;2039;50.894;6.888;2023-02-15T01:02:49;95.87;;;29.90;;
4049;SDS011;2039;50.894;6.888;2023-02-15T01:05:15;96.30;;;26.77;;
4049;SDS011;2039;50.894;6.888;2023-02-15T01:07:41;99.23;;;28.30;;
4049;SDS011;2039;50.894;6.888;2023-02-15T01:10:07;101.57;;;30.00;;
4049;SDS011;2039;50.894;6.888;2023-02-15T01:12:33;106.88;;;29.10;;
4049;SDS011;2039;50.894;6.888;2023-02-15T01:14:59;100.00;;;28.38;;
4049;SDS011;2039;50.894;6.888;2023-02-15T01:17:25;101.97;;;28.67;;
4049;SDS011;2039;50.894;6.888;2023-02-15T01:19:51;107.03;;;27.90;;
4049;SDS011;2039;50.894;6.888;2023-02-15T01:22:17;100.03;;;27.27;;
4049;SDS011;2039;50.894;6.888;2023-02-15T01:24:43;102.18;;;28.35;;
4049;SDS011;2039;50.894;6.888;2023-02-15T01:27:12;100.55;;;28.27;;
4049;SDS011;2039;50.894;6.888;2023-02-15T01:29:38;99.80;;;26.20;;
4049;SDS011;2039;50.894;6.888;2023-02-15T01:32:04;100.50;;;28.67;;
4049;SDS011;2039;50.894;6.888;2023-02-15T01:34:29;105.83;;;27.37;;
4049;SDS011;2039;50.894;6.888;2023-02-15T01:36:55;100.13;;;25.90;;
4049;SDS011;2039;50.894;6.888;2023-02-15T01:39:21;103.07;;;29.17;;
4049;SDS011;2039;50.894;6.888;2023-02-15T01:41:47;107.80;;;28.27;;
4049;SDS011;2039;50.894;6.888;2023-02-15T01:47:10;99.57;;;25.88;;
4049;SDS011;2039;50.894;6.888;2023-02-15T01:49:40;101.35;;;26.48;;
4049;SDS011;2039;50.894;6.888;2023-02-15T01:52:08;102.22;;;27.55;;
4049;SDS011;2039;50.894;6.888;2023-02-15T01:54:38;99.57;;;32.33;;
4049;SDS011;2039;50.894;6.888;2023-02-15T01:57:08;98.80;;;28.85;;
4049;SDS011;2039;50.894;6.888;2023-02-15T01:59:37;98.88;;;29.02;;
4049;SDS011;2039;50.894;6.888;2023-02-15T02:02:04;104.30;;;26.85;;
4049;SDS011;2039;50.894;6.888;2023-02-15T02:04:41;104.10;;;29.40;;
4049;SDS011;2039;50.894;6.888;2023-02-15T02:07:13;100.53;;;24.65;;
4049;SDS011;2039;50.894;6.888;2023-02-15T02:09:41;105.40;;;26.55;;
4049;SDS011;2039;50.894;6.888;2023-02-15T02:12:07;109.55;;;31.50;;
4049;SDS011;2039;50.894;6.888;2023-02-15T02:14:34;100.30;;;25.00;;
4049;SDS011;2039;50.894;6.888;2023-02-15T02:17:05;102.18;;;24.73;;
4049;SDS011;2039;50.894;6.888;2023-02-15T02:19:58;101.97;;;25.95;;
4049;SDS011;2039;50.894;6.888;2023-02-15T02:25:09;98.33;;;24.67;;
4049;SDS011;2039;50.894;6.888;2023-02-15T02:39:07;96.22;;;23.67;;
4049;SDS011;2039;50.894;6.888;2023-02-15T02:50:05;100.88;;;24.35;;
4049;SDS011;2039;50.894;6.888;2023-02-15T02:52:44;99.80;;;25.40;;
4049;SDS011;2039;50.894;6.888;2023-02-15T03:00:40;105.63;;;26.75;;
4049;SDS011;2039;50.894;6.888;2023-02-15T03:03:14;104.78;;;25.77;;
4049;SDS011;2039;50.894;6.888;2023-02-15T03:05:48;109.85;;;26.58;;
4049;SDS011;2039;50.894;6.888;2023-02-15T03:08:18;103.00;;;30.02;;
4049;SDS011;2039;50.894;6.888;2023-02-15T03:10:47;95.85;;;26.95;;
4049;SDS011;2039;50.894;6.888;2023-02-15T03:13:16;97.40;;;23.52;;
4049;SDS011;2039;50.894;6.888;2023-02-15T03:15:42;106.25;;;28.52;;
4049;SDS011;2039;50.894;6.888;2023-02-15T03:18:30;100.90;;;26.75;;
4049;SDS011;2039;50.894;6.888;2023-02-15T03:21:01;103.05;;;28.75;;
4049;SDS011;2039;50.894;6.888;2023-02-15T03:23:29;101.53;;;29.17;;
4049;SDS011;2039;50.894;6.888;2023-02-15T03:25:59;99.60;;;27.52;;
4049;SDS011;2039;50.894;6.888;2023-02-15T03:28:45;97.68;;;26.17;;
4049;SDS011;2039;50.894;6.888;2023-02-15T03:31:14;107.97;;;28.33;;
4049;SDS011;2039;50.894;6.888;2023-02-15T03:33:48;104.75;;;32.03;;
4049;SDS011;2039;50.894;6.888;2023-02-15T03:38:59;104.47;;;27.90;;
4049;SDS011;2039;50.894;6.888;2023-02-15T03:41:41;101.97;;;26.98;;
4049;SDS011;2039;50.894;6.888;2023-02-15T03:44:28;99.55;;;25.40;;
4049;SDS011;2039;50.894;6.888;2023-02-15T03:47:04;103.22;;;27.23;;
4049;SDS011;2039;50.894;6.888;2023-02-15T03:52:17;101.28;;;26.02;;
4049;SDS011;2039;50.894;6.888;2023-02-15T03:54:45;104.10;;;28.00;;
4049;SDS011;2039;50.894;6.888;2023-02-15T04:00:12;101.25;;;22.77;;
4049;SDS011;2039;50.894;6.888;2023-02-15T04:05:47;96.93;;;24.48;;
4049;SDS011;2039;50.894;6.888;2023-02-15T04:08:12;102.17;;;24.87;;
4049;SDS011;2039;50.894;6.888;2023-02-15T04:10:38;104.67;;;25.50;;
4049;SDS011;2039;50.894;6.888;2023-02-15T04:13:29;104.22;;;27.45;;
4049;SDS011;2039;50.894;6.888;2023-02-15T04:15:56;98.45;;;24.88;;
4049;SDS011;2039;50.894;6.888;2023-02-15T04:18:28;102.25;;;27.10;;
4049;SDS011;2039;50.894;6.888;2023-02-15T04:21:21;99.80;;;25.88;;
4049;SDS011;2039;50.894;6.888;2023-02-15T04:24:06;97.20;;;24.20;;
4049;SDS011;2039;50.894;6.888;2023-02-15T04:26:51;99.03;;;23.83;;
4049;SDS011;2039;50.894;6.888;2023-02-15T04:29:24;103.45;;;26.67;;
4049;SDS011;2039;50.894;6.888;2023-02-15T04:31:51;97.30;;;23.45;;
4049;SDS011;2039;50.894;6.888;2023-02-15T04:34:17;100.95;;;28.25;;
4049;SDS011;2039;50.894;6.888;2023-02-15T04:36:43;100.40;;;29.07;;
4049;SDS011;2039;50.894;6.888;2023-02-15T04:39:09;100.70;;;28.43;;
4049;SDS011;2039;50.894;6.888;2023-02-15T04:41:37;100.40;;;28.25;;
4049;SDS011;2039;50.894;6.888;2023-02-15T04:44:03;98.17;;;26.27;;
4049;SDS011;2039;50.894;6.888;2023-02-15T04:46:29;98.83;;;27.67;;
4049;SDS011;2039;50.894;6.888;2023-02-15T04:48:54;102.23;;;25.23;;
4049;SDS011;2039;50.894;6.888;2023-02-15T04:51:21;99.82;;;25.63;;
4049;SDS011;2039;50.894;6.888;2023-02-15T04:53:46;98.27;;;24.07;;
4049;SDS011;2039;50.894;6.888;2023-02-15T04:56:12;104.70;;;26.43;;
4049;SDS011;2039;50.894;6.888;2023-02-15T04:58:40;107.90;;;27.25;;
4049;SDS011;2039;50.894;6.888;2023-02-15T05:01:09;97.70;;;24.90;;
4049;SDS011;2039;50.894;6.888;2023-02-15T05:03:35;97.60;;;28.08;;
4049;SDS011;2039;50.894;6.888;2023-02-15T05:06:01;98.20;;;26.07;;
4049;SDS011;2039;50.894;6.888;2023-02-15T05:08:27;103.03;;;24.58;;
4049;SDS011;2039;50.894;6.888;2023-02-15T05:10:53;96.23;;;25.80;;
4049;SDS011;2039;50.894;6.888;2023-02-15T05:13:22;102.95;;;28.10;;
4049;SDS011;2039;50.894;6.888;2023-02-15T05:15:48;99.23;;;30.30;;
4049;SDS011;2039;50.894;6.888;2023-02-15T05:18:15;97.43;;;25.13;;
4049;SDS011;2039;50.894;6.888;2023-02-15T05:20:42;99.07;;;26.92;;
4049;SDS011;2039;50.894;6.888;2023-02-15T05:23:08;107.65;;;42.88;;
4049;SDS011;2039;50.894;6.888;2023-02-15T05:25:37;97.85;;;25.23;;
4049;SDS011;2039;50.894;6.888;2023-02-15T05:28:23;95.82;;;26.65;;
4049;SDS011;2039;50.894;6.888;2023-02-15T05:30:51;99.78;;;29.77;;
4049;SDS011;2039;50.894;6.888;2023-02-15T05:33:28;102.65;;;26.73;;
4049;SDS011;2039;50.894;6.888;2023-02-15T05:35:54;100.87;;;28.77;;
4049;SDS011;2039;50.894;6.888;2023-02-15T05:38:19;96.23;;;27.27;;
4049;SDS011;2039;50.894;6.888;2023-02-15T05:40:45;93.47;;;25.90;;
4049;SDS011;2039;50.894;6.888;2023-02-15T05:43:11;103.13;;;28.77;;
4049;SDS011;2039;50.894;6.888;2023-02-15T05:45:36;95.97;;;27.43;;
4049;SDS011;2039;50.894;6.888;2023-02-15T05:48:02;101.17;;;31.17;;
4049;SDS011;2039;50.894;6.888;2023-02-15T05:50:28;95.50;;;28.00;;
4049;SDS011;2039;50.894;6.888;2023-02-15T05:52:53;101.63;;;25.83;;
4049;SDS011;2039;50.894;6.888;2023-02-15T05:55:19;98.20;;;26.97;;
4049;SDS011;2039;50.894;6.888;2023-02-15T05:57:45;95.33;;;30.40;;
4049;SDS011;2039;50.894;6.888;2023-02-15T06:00:12;97.10;;;26.57;;
4049;SDS011;2039;50.894;6.888;2023-02-15T06:02:41;102.55;;;28.63;;
4049;SDS011;2039;50.894;6.888;2023-02-15T06:05:07;100.63;;;27.05;;
4049;SDS011;2039;50.894;6.888;2023-02-15T06:07:33;97.77;;;23.60;;
4049;SDS011;2039;50.894;6.888;2023-02-15T06:09:59;88.73;;;24.60;;
4049;SDS011;2039;50.894;6.888;2023-02-15T06:12:31;94.18;;;25.35;;
4049;SDS011;2039;50.894;6.888;2023-02-15T06:14:56;94.90;;;27.50;;
4049;SDS011;2039;50.894;6.888;2023-02-15T06:17:22;99.17;;;31.37;;
4049;SDS011;2039;50.894;6.888;2023-02-15T06:19:48;93.00;;;27.83;;
4049;SDS011;2039;50.894;6.888;2023-02-15T06:22:13;99.13;;;29.87;;
4049;SDS011;2039;50.894;6.888;2023-02-15T06:24:42;104.70;;;28.73;;
4049;SDS011;2039;50.894;6.888;2023-02-15T06:27:09;96.17;;;27.37;;
4049;SDS011;2039;50.894;6.888;2023-02-15T06:29:35;97.43;;;25.90;;
4049;SDS011;2039;50.894;6.888;2023-02-15T06:32:01;95.80;;;26.00;;
4049;SDS011;2039;50.894;6.888;2023-02-15T06:34:27;94.67;;;29.40;;
4049;SDS011;2039;50.894;6.888;2023-02-15T06:36:52;96.47;;;30.83;;
4049;SDS011;2039;50.894;6.888;2023-02-15T06:39:18;95.83;;;27.43;;
4049;SDS011;2039;50.894;6.888;2023-02-15T06:41:44;94.20;;;24.90;;
4049;SDS011;2039;50.894;6.888;2023-02-15T06:44:09;96.57;;;26.47;;
4049;SDS011;2039;50.894;6.888;2023-02-15T06:46:35;99.93;;;28.80;;
4049;SDS011;2039;50.894;6.888;2023-02-15T06:49:00;93.90;;;25.10;;
4049;SDS011;2039;50.894;6.888;2023-02-15T06:51:26;94.63;;;28.90;;
4049;SDS011;2039;50.894;6.888;2023-02-15T06:53:52;96.90;;;26.47;;
4049;SDS011;2039;50.894;6.888;2023-02-15T06:56:17;97.40;;;29.47;;
4049;SDS011;2039;50.894;6.888;2023-02-15T06:58:43;95.70;;;31.00;;
4049;SDS011;2039;50.894;6.888;2023-02-15T07:01:11;93.45;;;28.67;;
4049;SDS011;2039;50.894;6.888;2023-02-15T07:03:39;99.32;;;29.05;;
4049;SDS011;2039;50.894;6.888;2023-02-15T07:06:05;97.07;;;31.52;;
4049;SDS011;2039;50.894;6.888;2023-02-15T07:08:33;99.57;;;30.10;;
4049;SDS011;2039;50.894;6.888;2023-02-15T07:10:59;97.72;;;30.25;;
4049;SDS011;2039;50.894;6.888;2023-02-15T07:14:04;93.32;;;27.70;;
4049;SDS011;2039;50.894;6.888;2023-02-15T07:16:29;105.13;;;41.70;;
4049;SDS011;2039;50.894;6.888;2023-02-15T07:18:55;98.67;;;28.37;;
4049;SDS011;2039;50.894;6.888;2023-02-15T07:21:21;92.57;;;25.67;;
4049;SDS011;2039;50.894;6.888;2023-02-15T07:23:46;95.70;;;30.77;;
4049;SDS011;2039;50.894;6.888;2023-02-15T07:26:12;93.07;;;29.80;;
4049;SDS011;2039;50.894;6.888;2023-02-15T07:28:38;92.30;;;29.27;;
4049;SDS011;2039;50.894;6.888;2023-02-15T07:31:04;92.57;;;30.20;;
4049;SDS011;2039;50.894;6.888;2023-02-15T07:33:30;91.38;;;26.30;;
4049;SDS011;2039;50.894;6.888;2023-02-15T07:35:57;95.22;;;33.63;;
4049;SDS011;2039;50.894;6.888;2023-02-15T07:38:27;92.72;;;30.20;;
4049;SDS011;2039;50.894;6.888;2023-02-15T07:41:04;96.13;;;33.97;;
4049;SDS011;2039;50.894;6.888;2023-02-15T07:43:35;94.68;;;34.05;;
4049;SDS011;2039;50.894;6.888;2023-02-15T07:46:06;98.13;;;30.80;;
4049;SDS011;2039;50.894;6.888;2023-02-15T07:48:40;100.80;;;44.97;;
4049;SDS011;2039;50.894;6.888;2023-02-15T07:51:07;94.80;;;28.48;;
4049;SDS011;2039;50.894;6.888;2023-02-15T07:53:34;96.82;;;31.85;;
4049;SDS011;2039;50.894;6.888;2023-02-15T07:56:01;93.88;;;31.23;;
4049;SDS011;2039;50.894;6.888;2023-02-15T07:58:29;97.40;;;33.42;;
4049;SDS011;2039;50.894;6.888;2023-02-15T08:01:13;93.90;;;29.30;;
4049;SDS011;2039;50.894;6.888;2023-02-15T08:03:39;97.63;;;36.55;;
4049;SDS011;2039;50.894;6.888;2023-02-15T08:06:05;99.80;;;28.43;;
4049;SDS011;2039;50.894;6.888;2023-02-15T08:08:33;94.10;;;27.48;;
4049;SDS011;2039;50.894;6.888;2023-02-15T08:11:07;99.80;;;28.23;;
4049;SDS011;2039;50.894;6.888;2023-02-15T08:16:42;94.78;;;29.90;;
4049;SDS011;2039;50.894;6.888;2023-02-15T08:19:25;93.88;;;35.42;;
4049;SDS011;2039;50.894;6.888;2023-02-15T08:21:53;96.45;;;37.53;;
4049;SDS011;2039;50.894;6.888;2023-02-15T08:24:25;93.40;;;24.40;;
4049;SDS011;2039;50.894;6.888;2023-02-15T08:26:52;95.18;;;28.52;;
4049;SDS011;2039;50.894;6.888;2023-02-15T08:29:19;90.20;;;24.95;;
4049;SDS011;2039;50.894;6.888;2023-02-15T08:31:47;93.70;;;25.80;;
4049;SDS011;2039;50.894;6.888;2023-02-15T08:34:15;96.13;;;27.48;;
4049;SDS011;2039;50.894;6.888;2023-02-15T08:36:42;92.25;;;27.52;;
4049;SDS011;2039;50.894;6.888;2023-02-15T08:39:10;94.72;;;31.58;;
4049;SDS011;2039;50.894;6.888;2023-02-15T08:41:36;89.18;;;24.13;;
4049;SDS011;2039;50.894;6.888;2023-02-15T08:44:04;90.70;;;21.65;;
4049;SDS011;2039;50.894;6.888;2023-02-15T08:46:32;86.68;;;19.30;;
4049;SDS011;2039;50.894;6.888;2023-02-15T08:49:00;91.80;;;22.90;;
4049;SDS011;2039;50.894;6.888;2023-02-15T08:51:27;91.15;;;26.08;;
4049;SDS011;2039;50.894;6.888;2023-02-15T08:54:03;85.78;;;20.75;;
4049;SDS011;2039;50.894;6.888;2023-02-15T08:56:35;88.45;;;19.58;;
4049;SDS011;2039;50.894;6.888;2023-02-15T08:59:02;94.13;;;20.27;;
4049;SDS011;2039;50.894;6.888;2023-02-15T09:01:32;91.50;;;21.52;;
4049;SDS011;2039;50.894;6.888;2023-02-15T09:04:00;88.10;;;19.90;;
4049;SDS011;2039;50.894;6.888;2023-02-15T09:06:29;91.45;;;21.13;;
4049;SDS011;2039;50.894;6.888;2023-02-15T09:08:57;88.87;;;26.53;;
4049;SDS011;2039;50.894;6.888;2023-02-15T09:11:27;88.10;;;18.73;;
4049;SDS011;2039;50.894;6.888;2023-02-15T09:13:55;99.10;;;23.33;;
4049;SDS011;2039;50.894;6.888;2023-02-15T09:16:23;87.38;;;20.38;;
4049;SDS011;2039;50.894;6.888;2023-02-15T09:18:50;90.55;;;23.05;;
4049;SDS011;2039;50.894;6.888;2023-02-15T09:21:17;85.40;;;18.98;;
4049;SDS011;2039;50.894;6.888;2023-02-15T09:23:46;86.53;;;20.85;;
4049;SDS011;2039;50.894;6.888;2023-02-15T09:26:17;85.82;;;19.17;;
4049;SDS011;2039;50.894;6.888;2023-02-15T09:28:44;89.35;;;18.00;;
4049;SDS011;2039;50.894;6.888;2023-02-15T09:31:14;87.47;;;19.65;;
4049;SDS011;2039;50.894;6.888;2023-02-15T09:33:42;90.00;;;19.63;;
4049;SDS011;2039;50.894;6.888;2023-02-15T09:36:22;89.97;;;20.55;;
4049;SDS011;2039;50.894;6.888;2023-02-15T09:39:03;85.65;;;20.23;;
4049;SDS011;2039;50.894;6.888;2023-02-15T10:04:23;88.05;;;21.77;;
4049;SDS011;2039;50.894;6.888;2023-02-15T10:18:34;86.20;;;23.70;;
4049;SDS011;2039;50.894;6.888;2023-02-15T10:21:14;83.90;;;22.40;;
4049;SDS011;2039;50.894;6.888;2023-02-15T10:26:37;90.70;;;25.55;;
4049;SDS011;2039;50.894;6.888;2023-02-15T10:32:26;83.05;;;19.45;;
4049;SDS011;2039;50.894;6.888;2023-02-15T10:40:46;83.03;;;17.35;;
4049;SDS011;2039;50.894;6.888;2023-02-15T10:49:49;84.80;;;16.95;;
4049;SDS011;2039;50.894;6.888;2023-02-15T11:06:39;82.68;;;14.65;;
4049;SDS011;2039;50.894;6.888;2023-02-15T11:09:13;85.72;;;16.30;;
4049;SDS011;2039;50.894;6.888;2023-02-15T11:11:43;83.85;;;14.50;;
4049;SDS011;2039;50.894;6.888;2023-02-15T11:16:59;87.95;;;15.63;;
4049;SDS011;2039;50.894;6.888;2023-02-15T11:19:34;81.50;;;13.93;;
4049;SDS011;2039;50.894;6.888;2023-02-15T11:22:05;82.20;;;15.52;;
4049;SDS011;2039;50.894;6.888;2023-02-15T11:24:34;85.93;;;15.65;;
4049;SDS011;2039;50.894;6.888;2023-02-15T11:37:21;84.07;;;15.68;;
4049;SDS011;2039;50.894;6.888;2023-02-15T11:40:17;84.03;;;14.63;;
4049;SDS011;2039;50.894;6.888;2023-02-15T11:42:49;91.18;;;15.27;;
4049;SDS011;2039;50.894;6.888;2023-02-15T11:45:26;89.45;;;16.83;;
4049;SDS011;2039;50.894;6.888;2023-02-15T11:48:00;79.85;;;13.40;;
4049;SDS011;2039;50.894;6.888;2023-02-15T11:50:34;81.78;;;16.65;;
4049;SDS011;2039;50.894;6.888;2023-02-15T11:53:07;84.00;;;15.10;;
4049;SDS011;2039;50.894;6.888;2023-02-15T11:55:41;92.05;;;15.50;;
4049;SDS011;2039;50.894;6.888;2023-02-15T12:04:16;86.63;;;15.23;;
4049;SDS011;2039;50.894;6.888;2023-02-15T12:07:09;80.18;;;14.48;;
4049;SDS011;2039;50.894;6.888;2023-02-15T12:12:25;80.88;;;14.40;;
4049;SDS011;2039;50.894;6.888;2023-02-15T12:15:00;80.75;;;14.02;;
4049;SDS011;2039;50.894;6.888;2023-02-15T12:17:29;82.32;;;14.27;;
4049;SDS011;2039;50.894;6.888;2023-02-15T12:20:00;84.78;;;15.00;;
4049;SDS011;2039;50.894;6.888;2023-02-15T12:22:29;84.65;;;15.27;;
4049;SDS011;2039;50.894;6.888;2023-02-15T12:28:15;83.57;;;14.60;;
4049;SDS011;2039;50.894;6.888;2023-02-15T12:31:01;84.20;;;15.10;;
4049;SDS011;2039;50.894;6.888;2023-02-15T12:33:32;85.15;;;15.10;;
4049;SDS011;2039;50.894;6.888;2023-02-15T12:36:04;80.70;;;14.70;;
4049;SDS011;2039;50.894;6.888;2023-02-15T12:39:05;85.70;;;16.67;;
4049;SDS011;2039;50.894;6.888;2023-02-15T12:41:44;84.53;;;14.77;;
4049;SDS011;2039;50.894;6.888;2023-02-15T12:44:23;80.40;;;14.05;;
4049;SDS011;2039;50.894;6.888;2023-02-15T12:46:58;82.97;;;15.65;;
4049;SDS011;2039;50.894;6.888;2023-02-15T12:49:26;85.43;;;15.32;;
4049;SDS011;2039;50.894;6.888;2023-02-15T12:51:54;85.38;;;15.52;;
4049;SDS011;2039;50.894;6.888;2023-02-15T12:57:14;83.72;;;14.68;;
4049;SDS011;2039;50.894;6.888;2023-02-15T13:02:22;81.70;;;14.73;;
4049;SDS011;2039;50.894;6.888;2023-02-15T13:04:51;83.22;;;14.35;;
4049;SDS011;2039;50.894;6.888;2023-02-15T13:07:18;79.50;;;14.98;;
4049;SDS011;2039;50.894;6.888;2023-02-15T13:09:47;83.55;;;14.55;;
4049;SDS011;2039;50.894;6.888;2023-02-15T13:12:19;83.10;;;15.20;;
4049;SDS011;2039;50.894;6.888;2023-02-15T13:14:49;83.15;;;15.35;;
4049;SDS011;2039;50.894;6.888;2023-02-15T13:17:37;83.00;;;14.95;;
4049;SDS011;2039;50.894;6.888;2023-02-15T13:20:18;83.07;;;14.23;;
4049;SDS011;2039;50.894;6.888;2023-02-15T13:22:47;82.82;;;14.43;;
4049;SDS011;2039;50.894;6.888;2023-02-15T13:25:22;83.55;;;15.02;;
4049;SDS011;2039;50.894;6.888;2023-02-15T13:27:57;81.80;;;14.02;;
4049;SDS011;2039;50.894;6.888;2023-02-15T13:30:31;81.50;;;14.05;;
4049;SDS011;2039;50.894;6.888;2023-02-15T13:33:08;81.88;;;15.05;;
4049;SDS011;2039;50.894;6.888;2023-02-15T13:35:43;78.22;;;13.07;;
4049;SDS011;2039;50.894;6.888;2023-02-15T13:41:01;81.13;;;14.88;;
4049;SDS011;2039;50.894;6.888;2023-02-15T13:43:52;81.78;;;15.02;;
4049;SDS011;2039;50.894;6.888;2023-02-15T13:52:18;80.50;;;13.43;;
4049;SDS011;2039;50.894;6.888;2023-02-15T14:00:52;81.90;;;16.23;;
4049;SDS011;2039;50.894;6.888;2023-02-15T14:08:54;80.63;;;13.35;;
4049;SDS011;2039;50.894;6.888;2023-02-15T14:11:38;82.80;;;14.52;;
4049;SDS011;2039;50.894;6.888;2023-02-15T14:17:02;80.05;;;13.40;;
4049;SDS011;2039;50.894;6.888;2023-02-15T14:20:03;79.05;;;14.18;;
4049;SDS011;2039;50.894;6.888;2023-02-15T14:22:42;80.93;;;13.80;;
4049;SDS011;2039;50.894;6.888;2023-02-15T14:25:29;79.20;;;14.55;;
4049;SDS011;2039;50.894;6.888;2023-02-15T14:28:15;85.05;;;14.85;;
4049;SDS011;2039;50.894;6.888;2023-02-15T14:31:02;84.40;;;15.15;;
4049;SDS011;2039;50.894;6.888;2023-02-15T14:33:39;83.15;;;15.18;;
4049;SDS011;2039;50.894;6.888;2023-02-15T14:36:08;81.85;;;15.15;;
4049;SDS011;2039;50.894;6.888;2023-02-15T14:42:09;82.65;;;14.90;;
4049;SDS011;2039;50.894;6.888;2023-02-15T14:44:55;78.65;;;13.77;;
4049;SDS011;2039;50.894;6.888;2023-02-15T14:53:15;81.93;;;14.65;;
4049;SDS011;2039;50.894;6.888;2023-02-15T14:55:47;84.85;;;14.38;;
4049;SDS011;2039;50.894;6.888;2023-02-15T15:01:31;82.95;;;14.05;;
4049;SDS011;2039;50.894;6.888;2023-02-15T15:03:59;80.72;;;14.40;;
4049;SDS011;2039;50.894;6.888;2023-02-15T15:06:54;79.63;;;14.23;;
4049;SDS011;2039;50.894;6.888;2023-02-15T15:09:25;81.28;;;13.93;;
4049;SDS011;2039;50.894;6.888;2023-02-15T15:11:55;83.55;;;14.35;;
4049;SDS011;2039;50.894;6.888;2023-02-15T15:14:42;80.30;;;13.85;;
4049;SDS011;2039;50.894;6.888;2023-02-15T15:17:51;83.68;;;15.23;;
4049;SDS011;2039;50.894;6.888;2023-02-15T15:22:28;80.63;;;13.82;;
4049;SDS011;2039;50.894;6.888;2023-02-15T15:24:56;82.43;;;14.35;;
4049;SDS011;2039;50.894;6.888;2023-02-15T15:27:46;79.55;;;12.90;;
4049;SDS011;2039;50.894;6.888;2023-02-15T15:49:10;78.43;;;13.82;;
4049;SDS011;2039;50.894;6.888;2023-02-15T15:51:41;84.38;;;15.15;;
4049;SDS011;2039;50.894;6.888;2023-02-15T15:54:12;81.65;;;15.10;;
4049;SDS011;2039;50.894;6.888;2023-02-15T15:56:43;79.57;;;14.50;;
4049;SDS011;2039;50.894;6.888;2023-02-15T15:59:23;81.32;;;14.88;;
4049;SDS011;2039;50.894;6.888;2023-02-15T16:01:51;85.15;;;16.20;;
4049;SDS011;2039;50.894;6.888;2023-02-15T16:04:27;82.80;;;14.38;;
4049;SDS011;2039;50.894;6.888;2023-02-15T16:07:42;80.80;;;14.85;;
4049;SDS011;2039;50.894;6.888;2023-02-15T16:12:45;84.57;;;13.98;;
4049;SDS011;2039;50.894;6.888;2023-02-15T16:15:17;85.20;;;13.80;;
4049;SDS011;2039;50.894;6.888;2023-02-15T16:17:50;78.85;;;13.18;;
4049;SDS011;2039;50.894;6.888;2023-02-15T16:20:24;82.78;;;14.77;;
4049;SDS011;2039;50.894;6.888;2023-02-15T16:28:52;82.75;;;14.85;;
4049;SDS011;2039;50.894;6.888;2023-02-15T16:31:19;83.65;;;16.42;;
4049;SDS011;2039;50.894;6.888;2023-02-15T16:33:47;84.50;;;15.05;;
4049;SDS011;2039;50.894;6.888;2023-02-15T16:43:48;86.27;;;16.63;;
4049;SDS011;2039;50.894;6.888;2023-02-15T16:46:25;85.50;;;16.48;;
4049;SDS011;2039;50.894;6.888;2023-02-15T16:49:16;82.75;;;17.00;;
4049;SDS011;2039;50.894;6.888;2023-02-15T16:51:53;84.40;;;15.88;;
4049;SDS011;2039;50.894;6.888;2023-02-15T16:54:31;85.10;;;17.23;;
4049;SDS011;2039;50.894;6.888;2023-02-15T16:57:00;86.57;;;17.17;;
4049;SDS011;2039;50.894;6.888;2023-02-15T17:02:30;90.88;;;19.10;;
4049;SDS011;2039;50.894;6.888;2023-02-15T17:05:02;92.00;;;18.27;;
4049;SDS011;2039;50.894;6.888;2023-02-15T17:07:40;84.88;;;18.20;;
4049;SDS011;2039;50.894;6.888;2023-02-15T17:13:13;89.88;;;17.38;;
4049;SDS011;2039;50.894;6.888;2023-02-15T17:15:41;86.53;;;17.52;;
4049;SDS011;2039;50.894;6.888;2023-02-15T17:18:18;86.13;;;17.40;;
4049;SDS011;2039;50.894;6.888;2023-02-15T17:20:46;88.65;;;18.35;;
4049;SDS011;2039;50.894;6.888;2023-02-15T17:23:31;86.70;;;17.30;;
4049;SDS011;2039;50.894;6.888;2023-02-15T17:26:01;90.07;;;20.92;;
4049;SDS011;2039;50.894;6.888;2023-02-15T17:28:40;87.53;;;17.30;;
4049;SDS011;2039;50.894;6.888;2023-02-15T17:31:12;90.55;;;18.25;;
4049;SDS011;2039;50.894;6.888;2023-02-15T17:33:41;85.97;;;17.77;;
4049;SDS011;2039;50.894;6.888;2023-02-15T17:36:21;88.00;;;19.88;;
4049;SDS011;2039;50.894;6.888;2023-02-15T17:39:18;87.82;;;19.58;;
4049;SDS011;2039;50.894;6.888;2023-02-15T17:41:48;92.03;;;18.20;;
4049;SDS011;2039;50.894;6.888;2023-02-15T17:44:17;88.03;;;17.80;;
4049;SDS011;2039;50.894;6.888;2023-02-15T17:46:43;86.00;;;16.87;;
4049;SDS011;2039;50.894;6.888;2023-02-15T17:49:13;84.57;;;17.20;;
4049;SDS011;2039;50.894;6.888;2023-02-15T17:51:48;85.82;;;17.17;;
4049;SDS011;2039;50.894;6.888;2023-02-15T17:54:14;82.17;;;16.50;;
4049;SDS011;2039;50.894;6.888;2023-02-15T17:57:12;89.45;;;19.00;;
4049;SDS011;2039;50.894;6.888;2023-02-15T17:59:39;87.35;;;17.13;;
4049;SDS011;2039;50.894;6.888;2023-02-15T18:02:29;88.30;;;17.63;;
4049;SDS011;2039;50.894;6.888;2023-02-15T18:05:20;88.20;;;18.02;;
4049;SDS011;2039;50.894;6.888;2023-02-15T18:08:14;86.03;;;17.85;;
4049;SDS011;2039;50.894;6.888;2023-02-15T18:11:01;82.53;;;17.00;;
4049;SDS011;2039;50.894;6.888;2023-02-15T18:13:45;86.72;;;17.85;;
4049;SDS011;2039;50.894;6.888;2023-02-15T18:16:15;88.57;;;17.87;;
4049;SDS011;2039;50.894;6.888;2023-02-15T18:18:44;91.55;;;20.80;;
4049;SDS011;2039;50.894;6.888;2023-02-15T18:21:10;88.53;;;18.47;;
4049;SDS011;2039;50.894;6.888;2023-02-15T18:23:37;90.70;;;17.23;;
4049;SDS011;2039;50.894;6.888;2023-02-15T18:26:03;84.93;;;17.17;;
4049;SDS011;2039;50.894;6.888;2023-02-15T18:28:29;84.20;;;17.98;;
4049;SDS011;2039;50.894;6.888;2023-02-15T18:31:01;95.03;;;18.40;;
4049;SDS011;2039;50.894;6.888;2023-02-15T18:33:56;87.10;;;18.60;;
4049;SDS011;2039;50.894;6.888;2023-02-15T18:36:27;88.15;;;17.50;;
4049;SDS011;2039;50.894;6.888;2023-02-15T18:41:52;88.22;;;18.88;;
4049;SDS011;2039;50.894;6.888;2023-02-15T18:44:18;89.63;;;19.25;;
4049;SDS011;2039;50.894;6.888;2023-02-15T18:46:43;86.70;;;17.83;;
4049;SDS011;2039;50.894;6.888;2023-02-15T18:49:14;83.85;;;16.75;;
4049;SDS011;2039;50.894;6.888;2023-02-15T18:51:43;86.63;;;17.38;;
4049;SDS011;2039;50.894;6.888;2023-02-15T18:54:16;83.80;;;16.60;;
4049;SDS011;2039;50.894;6.888;2023-02-15T18:56:49;85.32;;;19.08;;